createdAt,value
2022-10-02T00:00:17.359Z,101246.44
2022-10-02T00:06:16.489Z,101264.59
2022-10-02T00:12:06.289Z,101278.41
2022-10-02T00:17:56.529Z,101298.06
2022-10-02T00:23:51.367Z,101291.06
2022-10-02T00:29:57.868Z,101281.88
2022-10-02T00:36:04.878Z,101295.53
2022-10-02T00:41:51.408Z,101283.47
2022-10-02T00:48:07.963Z,101281.50
2022-10-02T00:54:04.287Z,101279.84
2022-10-02T00:59:51.631Z,101291.09
2022-10-02T01:05:38.641Z,101289.25
2022-10-02T01:11:27.032Z,101300.34
2022-10-02T01:17:29.797Z,101309.28
2022-10-02T01:23:36.597Z,101306.25
2022-10-02T01:29:23.176Z,101298.28
2022-10-02T01:35:13.103Z,101299.66
2022-10-02T01:41:11.845Z,101293.06
2022-10-02T01:47:07.829Z,101311.50
2022-10-02T01:53:29.961Z,101290.56
2022-10-02T01:59:55.794Z,101286.91
2022-10-02T02:06:30.648Z,101291.97
2022-10-02T02:12:50.183Z,101301.72
2022-10-02T02:18:48.496Z,101312.78
2022-10-02T02:24:47.547Z,101323.63
2022-10-02T02:30:38.530Z,101329.88
2022-10-02T02:36:32.967Z,101310.34
2022-10-02T02:42:26.091Z,101315.75
2022-10-02T02:48:26.661Z,101316.19
2022-10-02T02:54:24.694Z,101317.09
2022-10-02T03:00:15.597Z,101313.06
2022-10-02T03:06:18.892Z,101314.25
2022-10-02T03:12:26.831Z,101333.09
2022-10-02T03:18:52.243Z,101328.78
2022-10-02T03:25:01.291Z,101329.34
2022-10-02T03:30:48.714Z,101320.56
2022-10-02T03:36:36.097Z,101334.59
2022-10-02T03:42:25.906Z,101325.09
2022-10-02T03:48:12.507Z,101323.56
2022-10-02T03:53:59.192Z,101329.97
2022-10-02T04:00:02.433Z,101320.66
2022-10-02T04:05:55.252Z,101314.19
2022-10-02T04:11:49.855Z,101330.78
2022-10-02T04:18:06.134Z,101343.66
2022-10-02T04:24:04.438Z,101354.84
2022-10-02T04:29:55.945Z,101347.69
2022-10-02T04:36:03.813Z,101375.00
2022-10-02T04:42:02.508Z,101386.97
2022-10-02T04:48:33.526Z,101383.25
2022-10-02T04:54:38.382Z,101387.41
2022-10-02T05:00:26.855Z,101389.22
2022-10-02T05:06:31.998Z,101402.97
2022-10-02T05:12:40.209Z,101410.78
2022-10-02T05:18:35.586Z,101404.38
2022-10-02T05:24:46.735Z,101373.50
2022-10-02T05:31:00.124Z,101366.44
2022-10-02T05:36:57.504Z,101337.91
2022-10-02T05:43:12.575Z,101388.47
2022-10-02T05:49:05.673Z,101422.00
2022-10-02T05:55:18.328Z,101432.47
2022-10-02T06:01:14.556Z,101470.41
2022-10-02T06:07:06.891Z,101467.78
2022-10-02T06:13:13.810Z,101450.25
2022-10-02T06:19:12.788Z,101440.31
2022-10-02T06:25:11.656Z,101437.91
2022-10-02T06:31:22.282Z,101449.56
2022-10-02T06:37:22.492Z,101452.50
2022-10-02T06:43:09.663Z,101467.81
2022-10-02T06:49:18.655Z,101471.13
2022-10-02T06:55:08.662Z,101498.97
2022-10-02T07:01:32.959Z,101492.84
2022-10-02T07:07:22.961Z,101492.84
2022-10-02T07:21:49.050Z,101508.84
2022-10-02T07:28:01.600Z,101543.44
2022-10-02T07:34:03.510Z,101556.03
2022-10-02T07:40:51.074Z,101563.47
2022-10-02T07:47:31.599Z,101551.59
2022-10-02T08:33:58.802Z,101648.28
2022-10-02T08:48:57.642Z,101654.78
2022-10-02T08:55:18.065Z,101659.34
2022-10-02T09:01:26.720Z,101665.06
2022-10-02T09:07:51.722Z,101682.34
2022-10-02T09:13:42.480Z,101691.06
2022-10-02T09:20:17.238Z,101687.16
2022-10-02T09:26:17.106Z,101690.13
2022-10-02T09:32:43.570Z,101681.06
2022-10-02T09:39:09.745Z,101678.38
2022-10-02T09:45:15.225Z,101680.75
2022-10-02T09:51:42.604Z,101704.09
2022-10-02T09:57:47.911Z,101704.22
2022-10-02T10:04:12.853Z,101721.38
2022-10-02T10:10:00.151Z,101718.25
2022-10-02T10:16:08.140Z,101719.00
2022-10-02T10:22:32.627Z,101727.44
2022-10-02T10:28:38.818Z,101732.78
2022-10-02T10:35:05.428Z,101720.19
2022-10-02T10:41:22.741Z,101707.63
2022-10-02T10:47:20.156Z,101694.19
2022-10-02T10:53:35.949Z,101696.69
2022-10-02T10:59:36.081Z,101711.44
2022-10-02T11:05:39.640Z,101717.25
2022-10-02T11:11:44.997Z,101709.22
2022-10-02T11:17:48.326Z,101725.28
2022-10-02T11:24:06.013Z,101714.56
2022-10-02T11:30:14.648Z,101718.09
2022-10-02T11:36:41.601Z,101731.25
2022-10-02T11:42:58.154Z,101736.09
2022-10-02T11:49:10.521Z,101727.78
2022-10-02T11:55:22.009Z,101740.56
2022-10-02T12:01:28.020Z,101722.97
2022-10-02T12:07:29.444Z,101746.28
2022-10-02T12:13:47.198Z,101737.78
2022-10-02T12:19:39.128Z,101736.81
2022-10-02T12:25:53.505Z,101741.28
2022-10-02T12:31:57.478Z,101756.38
2022-10-02T12:38:08.612Z,101765.31
2022-10-02T12:44:37.287Z,101775.53
2022-10-02T12:50:48.120Z,101772.50
2022-10-02T12:56:35.742Z,101772.25
2022-10-02T13:02:56.156Z,101781.25
2022-10-02T13:09:06.729Z,101793.69
2022-10-02T13:15:04.502Z,101793.81
2022-10-02T13:20:57.410Z,101805.25
2022-10-02T13:26:52.754Z,101786.81
2022-10-02T13:33:05.999Z,101815.25
2022-10-02T13:39:10.787Z,101804.94
2022-10-02T13:45:06.606Z,101809.94
2022-10-02T13:51:06.181Z,101823.34
2022-10-02T13:57:07.593Z,101825.31
2022-10-02T14:03:02.308Z,101847.63
2022-10-02T14:09:16.893Z,101846.63
2022-10-02T14:15:19.867Z,101850.69
2022-10-02T14:21:20.527Z,101864.44
2022-10-02T14:27:16.914Z,101852.88
2022-10-02T14:33:16.759Z,101859.72
2022-10-02T14:39:28.834Z,101869.53
2022-10-02T14:45:24.646Z,101873.81
2022-10-02T14:51:33.371Z,101884.31
2022-10-02T14:57:38.601Z,101867.44
2022-10-02T15:03:41.175Z,101887.91
2022-10-02T15:09:34.822Z,101882.50
2022-10-02T15:15:45.742Z,101888.94
2022-10-02T15:21:50.186Z,101888.88
2022-10-02T15:27:42.934Z,101893.47
2022-10-02T15:33:42.513Z,101907.75
2022-10-02T15:39:32.214Z,101898.41
2022-10-02T15:45:33.521Z,101901.22
2022-10-02T15:51:39.053Z,101921.25
2022-10-02T15:57:34.316Z,101925.34
2022-10-02T16:03:27.657Z,101923.09
2022-10-02T16:09:24.223Z,101940.47
2022-10-02T16:15:23.441Z,101933.00
2022-10-02T16:21:31.209Z,101932.44
2022-10-02T16:27:20.689Z,101945.63
2022-10-02T16:33:20.242Z,101948.63
2022-10-02T16:39:41.727Z,101957.66
2022-10-02T16:45:50.338Z,101966.81
2022-10-02T16:52:00.915Z,101979.22
2022-10-02T16:57:54.632Z,101998.66
2022-10-02T17:04:29.404Z,101987.50
2022-10-02T17:10:22.281Z,101991.75
2022-10-02T17:16:26.280Z,101984.94
2022-10-02T17:22:33.688Z,102008.97
2022-10-02T17:28:46.579Z,102029.59
2022-10-02T17:34:49.120Z,102023.03
2022-10-02T17:40:57.708Z,102024.53
2022-10-02T17:46:59.060Z,102048.56
2022-10-02T17:53:10.978Z,102058.44
2022-10-02T17:59:32.142Z,102057.81
2022-10-02T18:05:32.662Z,102084.66
2022-10-02T18:11:53.284Z,102096.03
2022-10-02T18:17:58.973Z,102122.25
2022-10-02T18:24:04.283Z,102122.09
2022-10-02T18:30:31.590Z,102112.00
2022-10-02T18:36:36.054Z,102136.47
2022-10-02T18:43:15.207Z,102151.84
2022-10-02T18:49:27.056Z,102159.06
2022-10-02T18:55:41.905Z,102170.91
2022-10-02T19:01:34.149Z,102178.25
2022-10-02T19:07:59.498Z,102186.41
2022-10-02T19:13:49.070Z,102183.84
2022-10-02T19:19:37.007Z,102189.94
2022-10-02T19:25:24.126Z,102200.91
2022-10-02T19:31:13.350Z,102216.09
2022-10-02T19:37:23.048Z,102234.03
2022-10-02T19:43:37.473Z,102251.41
2022-10-02T19:49:30.935Z,102261.06
2022-10-02T19:55:29.376Z,102275.25
2022-10-02T20:01:20.417Z,102297.66
2022-10-02T20:07:16.724Z,102305.09
2022-10-02T20:13:24.591Z,102314.09
2022-10-02T20:19:18.663Z,102308.75
2022-10-02T20:25:28.897Z,102310.31
2022-10-02T20:31:26.368Z,102317.72
2022-10-02T20:37:17.326Z,102325.69
2022-10-02T20:43:22.769Z,102326.69
2022-10-02T20:49:46.528Z,102343.66
2022-10-02T20:55:56.450Z,102348.69
2022-10-02T21:02:01.348Z,102340.09
2022-10-02T21:08:14.556Z,102340.81
2022-10-02T21:14:32.320Z,102340.69
2022-10-02T21:20:56.414Z,102345.13
2022-10-02T21:27:09.699Z,102340.19
2022-10-02T21:33:10.233Z,102350.03
2022-10-02T21:39:34.078Z,102353.59
2022-10-02T21:45:55.187Z,102359.91
2022-10-02T21:51:53.608Z,102374.56
2022-10-02T21:58:26.341Z,102384.09
2022-10-02T22:04:20.074Z,102361.91
2022-10-02T22:10:17.824Z,102378.94
2022-10-02T22:16:17.072Z,102371.13
2022-10-02T22:22:24.669Z,102371.78
2022-10-02T22:28:36.700Z,102394.84
2022-10-02T22:34:39.460Z,102386.66
2022-10-02T22:40:30.110Z,102376.19
2022-10-02T22:46:47.822Z,102366.16
2022-10-02T22:52:52.668Z,102366.41
2022-10-02T22:59:08.395Z,102354.88
2022-10-02T23:05:12.923Z,102360.00
2022-10-02T23:11:18.474Z,102357.09
2022-10-02T23:17:55.015Z,102354.34
2022-10-02T23:24:03.228Z,102359.66
2022-10-02T23:29:53.423Z,102379.25
2022-10-02T23:35:54.281Z,102379.81
2022-10-02T23:41:47.678Z,102366.53
2022-10-02T23:47:52.966Z,102356.38
2022-10-02T23:54:18.594Z,102354.38
